createdAt,value
2019-03-29T00:01:39.499Z,11.63
2019-03-29T00:04:08.336Z,11.05
2019-03-29T00:06:37.566Z,10.55
2019-03-29T00:09:07.918Z,11.97
2019-03-29T00:11:36.818Z,11.73
2019-03-29T00:14:05.746Z,13.03
2019-03-29T00:16:34.607Z,12.35
2019-03-29T00:19:03.443Z,11.28
2019-03-29T00:21:32.316Z,11.10
2019-03-29T00:24:06.653Z,12.73
2019-03-29T00:26:31.583Z,15.70
2019-03-29T00:29:00.423Z,12.30
2019-03-29T00:31:29.282Z,12.03
2019-03-29T00:33:58.047Z,12.93
2019-03-29T00:36:26.915Z,11.65
2019-03-29T00:38:55.755Z,14.15
2019-03-29T00:41:25.097Z,10.25
2019-03-29T00:43:54.247Z,9.23
2019-03-29T00:46:23.087Z,11.20
2019-03-29T00:48:51.917Z,12.28
2019-03-29T00:51:20.807Z,10.32
2019-03-29T00:53:49.671Z,11.08
2019-03-29T00:56:18.493Z,13.40
2019-03-29T00:58:47.374Z,11.85
2019-03-29T01:01:17.173Z,13.65
2019-03-29T01:03:46.054Z,12.70
2019-03-29T01:06:14.883Z,16.80
2019-03-29T01:08:43.759Z,15.43
2019-03-29T01:11:12.592Z,13.65
2019-03-29T01:13:41.431Z,15.13
2019-03-29T01:16:10.258Z,14.43
2019-03-29T01:18:39.131Z,14.90
2019-03-29T01:21:07.897Z,14.00
2019-03-29T01:23:36.758Z,16.62
2019-03-29T01:26:05.594Z,15.48
2019-03-29T01:28:34.415Z,12.75
2019-03-29T01:31:03.278Z,14.18
2019-03-29T01:33:32.111Z,15.78
2019-03-29T01:36:01.314Z,14.13
2019-03-29T01:38:30.893Z,15.93
2019-03-29T01:41:00.991Z,21.52
2019-03-29T01:43:30.074Z,15.23
2019-03-29T01:45:58.929Z,14.25
2019-03-29T01:48:27.753Z,17.02
2019-03-29T01:50:56.615Z,13.90
2019-03-29T01:53:25.446Z,18.15
2019-03-29T01:55:54.314Z,15.53
2019-03-29T01:58:23.170Z,13.83
2019-03-29T02:00:51.987Z,18.40
2019-03-29T02:03:20.837Z,12.13
2019-03-29T02:05:49.653Z,14.65
2019-03-29T02:08:18.506Z,16.50
2019-03-29T02:10:47.344Z,14.55
2019-03-29T02:13:16.211Z,14.55
2019-03-29T02:15:45.057Z,14.45
2019-03-29T02:18:14.030Z,19.48
2019-03-29T02:20:42.824Z,13.38
2019-03-29T02:23:11.641Z,13.45
2019-03-29T02:25:40.541Z,12.65
2019-03-29T02:28:09.463Z,16.00
2019-03-29T02:30:38.284Z,13.50
2019-03-29T02:33:07.102Z,16.42
2019-03-29T02:35:35.963Z,16.73
2019-03-29T02:38:04.761Z,14.45
2019-03-29T02:40:33.605Z,15.10
2019-03-29T02:43:02.428Z,14.53
2019-03-29T02:45:31.318Z,16.50
2019-03-29T02:48:00.106Z,16.15
2019-03-29T02:50:28.969Z,12.23
2019-03-29T02:52:57.793Z,20.72
2019-03-29T02:55:26.672Z,15.13
2019-03-29T02:57:55.480Z,18.65
2019-03-29T03:00:24.358Z,13.13
2019-03-29T03:02:53.229Z,17.90
2019-03-29T03:05:22.038Z,17.48
2019-03-29T03:07:50.894Z,15.90
2019-03-29T03:10:19.920Z,14.53
2019-03-29T03:12:48.784Z,17.57
2019-03-29T03:15:17.599Z,16.02
2019-03-29T03:17:46.458Z,19.80
2019-03-29T03:20:15.938Z,20.25
2019-03-29T03:22:45.235Z,17.20
2019-03-29T03:25:14.064Z,14.98
2019-03-29T03:27:42.904Z,15.70
2019-03-29T03:30:13.281Z,20.45
2019-03-29T03:32:42.210Z,16.27
2019-03-29T03:35:12.203Z,18.90
2019-03-29T03:37:41.320Z,16.37
2019-03-29T03:40:29.434Z,16.52
2019-03-29T03:42:58.243Z,17.55
2019-03-29T03:45:27.121Z,19.73
2019-03-29T03:47:55.935Z,15.38
2019-03-29T03:50:33.717Z,15.55
2019-03-29T03:53:02.549Z,16.30
2019-03-29T03:55:32.398Z,16.12
2019-03-29T03:58:02.920Z,16.60
2019-03-29T04:00:55.269Z,17.32
2019-03-29T04:03:25.201Z,16.65
2019-03-29T04:05:54.049Z,16.85
2019-03-29T04:08:22.888Z,15.85
2019-03-29T04:10:51.696Z,15.08
2019-03-29T04:13:20.559Z,18.65
2019-03-29T04:15:49.399Z,17.00
2019-03-29T04:18:18.262Z,18.15
2019-03-29T04:20:47.080Z,14.58
2019-03-29T04:23:15.895Z,20.20
2019-03-29T04:25:44.778Z,17.80
2019-03-29T04:28:13.614Z,16.60
2019-03-29T04:30:42.523Z,17.95
2019-03-29T04:33:11.594Z,19.02
2019-03-29T04:35:40.613Z,19.98
2019-03-29T04:38:09.364Z,17.52
2019-03-29T04:40:38.179Z,19.95
2019-03-29T04:43:07.001Z,19.12
2019-03-29T04:45:35.750Z,19.50
2019-03-29T04:48:04.708Z,19.42
2019-03-29T04:50:33.521Z,17.70
2019-03-29T04:53:02.338Z,18.17
2019-03-29T04:55:31.232Z,23.15
2019-03-29T04:58:00.045Z,19.62
2019-03-29T05:00:28.875Z,20.25
2019-03-29T05:02:57.752Z,17.90
2019-03-29T05:05:26.588Z,17.35
2019-03-29T05:07:55.422Z,17.10
2019-03-29T05:10:24.286Z,18.85
2019-03-29T05:12:53.104Z,15.58
2019-03-29T05:15:21.930Z,18.73
2019-03-29T05:17:50.797Z,21.23
2019-03-29T05:20:19.625Z,20.80
2019-03-29T05:22:48.471Z,19.02
2019-03-29T05:25:17.345Z,17.77
2019-03-29T05:27:46.162Z,23.90
2019-03-29T05:30:15.081Z,17.57
2019-03-29T05:32:43.980Z,15.93
2019-03-29T05:35:12.716Z,16.10
2019-03-29T05:37:41.556Z,16.60
2019-03-29T05:40:10.501Z,14.90
2019-03-29T05:42:39.347Z,16.35
2019-03-29T05:45:08.954Z,18.80
2019-03-29T05:47:37.828Z,15.48
2019-03-29T05:50:08.347Z,19.80
2019-03-29T05:52:37.181Z,12.95
2019-03-29T05:55:07.261Z,15.83
2019-03-29T05:57:36.072Z,15.23
2019-03-29T06:00:09.228Z,14.33
2019-03-29T06:02:38.072Z,17.07
2019-03-29T06:05:07.012Z,15.90
2019-03-29T06:07:35.843Z,15.30
2019-03-29T06:10:07.217Z,14.20
2019-03-29T06:12:36.042Z,13.65
2019-03-29T06:15:05.580Z,16.95
2019-03-29T06:17:47.660Z,17.37
2019-03-29T06:20:05.852Z,17.27
2019-03-29T06:22:34.660Z,17.98
2019-03-29T06:25:03.645Z,17.30
2019-03-29T06:27:32.496Z,14.73
2019-03-29T06:30:01.312Z,18.55
2019-03-29T06:32:30.185Z,22.30
2019-03-29T06:34:59.007Z,22.07
2019-03-29T06:37:29.068Z,21.80
2019-03-29T06:39:59.000Z,24.20
2019-03-29T06:42:27.784Z,24.00
2019-03-29T06:44:56.617Z,21.65
2019-03-29T06:47:25.470Z,19.05
2019-03-29T06:49:54.287Z,24.82
2019-03-29T06:52:23.216Z,21.42
2019-03-29T06:54:52.044Z,19.67
2019-03-29T06:57:20.901Z,17.27
2019-03-29T06:59:49.729Z,20.10
2019-03-29T07:02:18.597Z,23.90
2019-03-29T07:04:47.468Z,22.37
2019-03-29T07:07:16.300Z,19.42
2019-03-29T07:09:45.261Z,21.73
2019-03-29T07:12:14.090Z,25.55
2019-03-29T07:14:42.950Z,26.62
2019-03-29T07:17:11.783Z,24.25
2019-03-29T07:19:40.632Z,24.87
2019-03-29T07:22:09.491Z,21.77
2019-03-29T07:24:38.348Z,19.65
2019-03-29T07:27:07.171Z,25.10
2019-03-29T07:29:35.953Z,18.87
2019-03-29T07:32:04.774Z,20.50
2019-03-29T07:34:33.572Z,20.90
2019-03-29T07:37:05.538Z,17.62
2019-03-29T07:39:32.868Z,19.37
2019-03-29T07:42:01.717Z,20.23
2019-03-29T07:44:30.556Z,14.28
2019-03-29T07:46:59.423Z,14.30
2019-03-29T07:49:28.250Z,14.35
2019-03-29T07:51:57.114Z,16.02
2019-03-29T07:54:25.961Z,13.90
2019-03-29T07:56:54.755Z,11.25
2019-03-29T07:59:23.588Z,15.88
2019-03-29T08:01:52.460Z,14.55
2019-03-29T08:04:21.835Z,13.95
2019-03-29T08:06:51.451Z,14.28
2019-03-29T08:09:22.668Z,10.10
2019-03-29T08:11:50.780Z,11.05
2019-03-29T08:14:19.603Z,12.37
2019-03-29T08:16:48.483Z,11.25
2019-03-29T08:19:17.383Z,8.30
2019-03-29T08:21:46.209Z,10.58
2019-03-29T08:24:15.069Z,10.82
2019-03-29T08:26:43.895Z,11.08
2019-03-29T08:29:12.798Z,11.97
2019-03-29T08:31:41.627Z,13.93
2019-03-29T08:34:10.503Z,12.55
2019-03-29T08:36:39.316Z,9.55
2019-03-29T08:39:10.250Z,11.38
2019-03-29T08:41:38.884Z,11.30
2019-03-29T08:44:07.705Z,11.18
2019-03-29T08:46:36.575Z,10.48
2019-03-29T08:49:05.401Z,9.53
2019-03-29T08:51:34.262Z,10.03
2019-03-29T08:54:03.186Z,12.65
2019-03-29T08:56:32.054Z,11.97
2019-03-29T08:59:00.916Z,11.73
2019-03-29T09:01:29.746Z,9.55
2019-03-29T09:04:04.947Z,10.40
2019-03-29T09:06:30.317Z,10.55
2019-03-29T09:08:59.811Z,11.25
2019-03-29T09:11:28.670Z,10.30
2019-03-29T09:13:57.500Z,10.15
2019-03-29T09:16:26.364Z,12.10
2019-03-29T09:18:55.182Z,11.18
2019-03-29T09:21:24.055Z,12.00
2019-03-29T09:23:52.809Z,12.23
2019-03-29T09:26:21.669Z,13.70
2019-03-29T09:28:50.510Z,12.53
2019-03-29T09:31:19.361Z,11.80
2019-03-29T09:33:48.194Z,11.90
2019-03-29T09:36:16.976Z,10.63
2019-03-29T09:38:45.797Z,10.75
2019-03-29T09:41:14.667Z,10.93
2019-03-29T09:43:43.503Z,11.55
2019-03-29T09:46:12.317Z,10.40
2019-03-29T09:48:41.162Z,13.22
2019-03-29T09:51:09.991Z,12.53
2019-03-29T09:53:41.145Z,7.90
2019-03-29T09:56:09.329Z,11.95
2019-03-29T09:58:38.190Z,10.32
2019-03-29T10:01:07.015Z,9.83
2019-03-29T10:03:35.870Z,9.28
2019-03-29T10:06:04.689Z,10.13
2019-03-29T10:08:33.569Z,10.13
2019-03-29T10:11:02.408Z,9.73
2019-03-29T10:13:31.255Z,11.55
2019-03-29T10:16:00.080Z,8.08
2019-03-29T10:18:28.955Z,9.90
2019-03-29T10:20:57.800Z,9.10
2019-03-29T10:23:26.639Z,8.10
2019-03-29T10:25:58.522Z,9.53
2019-03-29T10:28:25.949Z,12.43
2019-03-29T10:30:54.814Z,8.43
2019-03-29T10:33:23.639Z,6.30
2019-03-29T10:35:53.162Z,11.15
2019-03-29T10:38:22.122Z,10.10
2019-03-29T10:40:50.977Z,9.55
2019-03-29T10:43:19.798Z,6.78
2019-03-29T10:45:48.648Z,7.28
2019-03-29T10:48:17.470Z,7.30
2019-03-29T10:50:46.324Z,7.70
2019-03-29T10:53:15.155Z,8.85
2019-03-29T10:55:44.019Z,7.28
2019-03-29T10:58:12.868Z,7.85
2019-03-29T11:00:42.283Z,7.92
2019-03-29T11:03:11.242Z,7.90
2019-03-29T11:05:40.167Z,7.20
2019-03-29T11:08:11.650Z,7.28
2019-03-29T11:10:40.311Z,7.42
2019-03-29T11:13:13.398Z,12.35
2019-03-29T11:15:39.650Z,7.75
2019-03-29T11:18:08.510Z,8.30
2019-03-29T11:20:37.475Z,10.70
2019-03-29T11:23:06.287Z,9.73
2019-03-29T11:25:35.115Z,7.70
2019-03-29T11:28:04.064Z,9.65
2019-03-29T11:30:42.011Z,8.20
2019-03-29T11:33:03.416Z,7.72
2019-03-29T11:35:32.280Z,6.67
2019-03-29T11:38:01.089Z,9.98
2019-03-29T11:40:29.946Z,9.35
2019-03-29T11:42:58.687Z,8.00
2019-03-29T11:45:27.544Z,9.80
2019-03-29T11:48:07.441Z,7.75
2019-03-29T11:50:29.119Z,8.20
2019-03-29T11:52:57.376Z,8.88
2019-03-29T11:55:26.459Z,10.08
2019-03-29T11:57:55.970Z,13.28
2019-03-29T12:00:35.747Z,9.18
2019-03-29T12:03:08.838Z,7.87
2019-03-29T12:05:36.821Z,9.18
2019-03-29T12:08:06.731Z,10.43
2019-03-29T12:10:35.769Z,9.08
2019-03-29T12:13:05.524Z,10.72
2019-03-29T12:15:34.366Z,9.70
2019-03-29T12:18:03.317Z,8.78
2019-03-29T12:20:32.159Z,9.38
2019-03-29T12:23:01.019Z,9.65
2019-03-29T12:25:29.848Z,8.15
2019-03-29T12:27:58.822Z,9.33
2019-03-29T12:30:32.012Z,9.80
2019-03-29T12:32:58.145Z,11.25
2019-03-29T12:35:27.002Z,7.58
2019-03-29T12:37:55.845Z,6.92
2019-03-29T12:40:24.695Z,10.50
2019-03-29T12:42:53.504Z,9.70
2019-03-29T12:45:22.374Z,6.50
2019-03-29T12:47:51.198Z,12.65
2019-03-29T12:50:20.065Z,11.70
2019-03-29T12:52:48.820Z,8.73
2019-03-29T12:55:17.660Z,9.05
2019-03-29T12:57:46.486Z,10.28
2019-03-29T13:00:15.464Z,8.70
2019-03-29T13:02:44.284Z,8.55
2019-03-29T13:05:13.967Z,9.23
2019-03-29T13:07:42.784Z,9.95
2019-03-29T13:10:12.353Z,9.98
2019-03-29T13:12:41.168Z,8.55
2019-03-29T13:15:10.090Z,11.97
2019-03-29T13:17:38.954Z,11.80
2019-03-29T13:20:08.264Z,12.03
2019-03-29T13:22:37.124Z,9.80
2019-03-29T13:25:07.595Z,8.13
2019-03-29T13:27:37.001Z,6.83
2019-03-29T13:30:10.116Z,10.13
2019-03-29T13:32:39.179Z,9.33
2019-03-29T13:35:08.601Z,11.60
2019-03-29T13:37:37.488Z,8.95
2019-03-29T13:40:09.468Z,8.98
2019-03-29T13:42:38.337Z,8.88
2019-03-29T13:45:08.666Z,9.73
2019-03-29T13:47:37.821Z,11.88
2019-03-29T13:50:09.160Z,9.70
2019-03-29T13:52:38.028Z,12.63
2019-03-29T13:55:08.518Z,8.48
2019-03-29T13:57:37.353Z,11.65
2019-03-29T14:00:12.415Z,8.78
2019-03-29T14:02:41.269Z,12.00
2019-03-29T14:05:10.189Z,10.55
2019-03-29T14:07:39.040Z,11.20
2019-03-29T14:10:09.066Z,15.53
2019-03-29T14:12:39.303Z,9.58
2019-03-29T14:15:10.767Z,11.38
2019-03-29T14:17:39.576Z,9.80
2019-03-29T14:20:09.985Z,8.78
2019-03-29T14:22:38.832Z,9.55
2019-03-29T14:25:08.293Z,11.53
2019-03-29T14:27:37.131Z,12.07
2019-03-29T14:30:07.842Z,12.18
2019-03-29T14:32:36.663Z,9.38
2019-03-29T14:35:08.800Z,9.33
2019-03-29T14:40:08.158Z,10.18
2019-03-29T14:42:37.039Z,14.63
2019-03-29T14:45:07.850Z,11.00
2019-03-29T14:47:43.611Z,12.10
2019-03-29T14:50:09.210Z,12.50
2019-03-29T14:52:38.095Z,10.55
2019-03-29T14:55:07.448Z,9.50
2019-03-29T14:57:36.332Z,11.48
2019-03-29T15:00:13.156Z,9.35
2019-03-29T15:02:42.028Z,10.50
2019-03-29T15:05:11.427Z,8.48
2019-03-29T15:07:41.839Z,10.90
2019-03-29T15:10:27.985Z,13.55
2019-03-29T15:12:56.833Z,18.05
2019-03-29T15:15:25.803Z,12.20
2019-03-29T15:17:54.676Z,10.98
2019-03-29T15:20:23.549Z,21.68
2019-03-29T15:22:52.371Z,11.73
2019-03-29T15:25:21.243Z,10.72
2019-03-29T15:27:50.117Z,11.97
2019-03-29T15:30:18.962Z,14.75
2019-03-29T15:32:47.757Z,13.78
2019-03-29T15:35:16.637Z,11.50
2019-03-29T15:37:45.558Z,13.70
2019-03-29T15:40:14.435Z,13.85
2019-03-29T15:42:43.296Z,10.23
2019-03-29T15:45:20.245Z,11.15
2019-03-29T15:47:43.969Z,13.28
2019-03-29T15:50:12.797Z,11.78
2019-03-29T15:52:41.696Z,12.47
2019-03-29T15:55:11.506Z,13.18
2019-03-29T15:57:40.448Z,14.23
2019-03-29T16:00:11.233Z,11.20
2019-03-29T16:02:40.192Z,14.18
2019-03-29T16:05:09.023Z,10.40
2019-03-29T16:07:37.893Z,12.30
2019-03-29T16:10:06.870Z,12.53
2019-03-29T16:12:35.707Z,14.65
2019-03-29T16:15:06.938Z,17.80
2019-03-29T16:17:35.784Z,15.28
2019-03-29T16:20:06.194Z,16.10
2019-03-29T16:22:35.334Z,11.83
2019-03-29T16:25:06.341Z,13.18
2019-03-29T16:27:35.191Z,14.00
2019-03-29T16:30:05.576Z,14.95
2019-03-29T16:32:34.399Z,11.15
2019-03-29T16:35:03.255Z,13.00
2019-03-29T16:37:32.114Z,14.73
2019-03-29T16:40:00.965Z,13.85
2019-03-29T16:42:29.804Z,11.48
2019-03-29T16:44:58.773Z,16.70
2019-03-29T16:47:27.628Z,12.45
2019-03-29T16:49:56.507Z,12.35
2019-03-29T16:52:25.400Z,13.55
2019-03-29T16:55:13.263Z,14.33
2019-03-29T16:57:34.861Z,15.10
2019-03-29T17:00:05.851Z,15.93
2019-03-29T17:02:34.697Z,12.90
2019-03-29T17:05:03.672Z,10.45
2019-03-29T17:07:32.520Z,13.80
2019-03-29T17:10:01.365Z,13.83
2019-03-29T17:12:30.280Z,14.15
2019-03-29T17:14:59.095Z,17.35
2019-03-29T17:17:31.090Z,10.85
2019-03-29T17:19:59.915Z,12.98
2019-03-29T17:22:29.270Z,13.20
2019-03-29T17:24:58.104Z,20.57
2019-03-29T17:27:28.842Z,12.23
2019-03-29T17:29:57.454Z,16.07
2019-03-29T17:32:26.853Z,15.95
2019-03-29T17:34:55.656Z,17.82
2019-03-29T17:37:24.575Z,14.05
2019-03-29T17:39:53.426Z,14.55
2019-03-29T17:42:22.301Z,15.75
2019-03-29T17:44:51.168Z,22.22
2019-03-29T17:47:20.041Z,26.17
2019-03-29T17:49:48.945Z,23.15
2019-03-29T17:52:17.823Z,24.00
2019-03-29T17:54:46.659Z,19.00
2019-03-29T17:57:15.528Z,19.42
2019-03-29T17:59:44.439Z,21.40
2019-03-29T18:02:13.289Z,21.95
2019-03-29T18:04:42.146Z,18.52
2019-03-29T18:07:10.983Z,20.45
2019-03-29T18:09:39.863Z,23.02
2019-03-29T18:12:11.235Z,18.02
2019-03-29T18:14:39.251Z,25.77
2019-03-29T18:17:08.124Z,25.27
2019-03-29T18:19:36.973Z,33.02
2019-03-29T18:22:05.874Z,20.72
2019-03-29T18:24:34.801Z,19.25
2019-03-29T18:27:03.680Z,18.75
2019-03-29T18:29:32.489Z,22.82
2019-03-29T18:32:01.380Z,20.43
2019-03-29T18:34:30.681Z,19.48
2019-03-29T18:37:01.068Z,18.00
2019-03-29T18:39:31.275Z,41.83
2019-03-29T18:42:00.115Z,25.23
2019-03-29T18:44:28.978Z,22.27
2019-03-29T18:46:57.853Z,28.75
2019-03-29T18:49:26.764Z,34.80
2019-03-29T18:51:55.568Z,32.38
2019-03-29T18:54:24.425Z,32.03
2019-03-29T18:56:53.295Z,23.20
2019-03-29T18:59:22.181Z,31.82
2019-03-29T19:01:51.093Z,32.28
2019-03-29T19:04:19.948Z,27.20
2019-03-29T19:06:48.817Z,23.70
2019-03-29T19:09:17.708Z,23.87
2019-03-29T19:11:46.530Z,23.07
2019-03-29T19:14:15.399Z,32.30
2019-03-29T19:16:58.067Z,30.72
2019-03-29T19:19:14.794Z,27.45
2019-03-29T19:21:43.641Z,27.07
2019-03-29T19:24:12.507Z,36.70
2019-03-29T19:26:41.365Z,32.98
2019-03-29T19:29:10.186Z,26.07
2019-03-29T19:31:39.092Z,28.02
2019-03-29T19:34:07.968Z,25.70
2019-03-29T19:36:36.839Z,25.12
2019-03-29T19:39:07.659Z,25.65
2019-03-29T19:41:36.574Z,27.40
2019-03-29T19:44:05.412Z,31.82
2019-03-29T19:46:34.280Z,26.15
2019-03-29T19:49:03.106Z,26.85
2019-03-29T19:51:31.941Z,27.80
2019-03-29T19:54:07.356Z,37.33
2019-03-29T19:56:31.414Z,20.70
2019-03-29T19:59:00.386Z,25.35
2019-03-29T20:01:29.257Z,27.58
2019-03-29T20:03:58.135Z,24.67
2019-03-29T20:06:27.023Z,26.20
2019-03-29T20:08:55.882Z,26.57
2019-03-29T20:11:24.960Z,28.35
2019-03-29T20:13:53.843Z,27.55
2019-03-29T20:16:22.746Z,27.13
2019-03-29T20:18:51.660Z,25.43
2019-03-29T20:21:20.478Z,26.75
2019-03-29T20:23:49.388Z,29.65
2019-03-29T20:26:18.250Z,30.90
2019-03-29T20:28:47.151Z,29.52
2019-03-29T20:31:15.974Z,29.15
2019-03-29T20:33:44.877Z,33.30
2019-03-29T20:36:22.332Z,30.75
2019-03-29T20:38:44.250Z,30.40
2019-03-29T20:41:13.078Z,37.83
2019-03-29T20:43:41.984Z,30.60
2019-03-29T20:46:10.831Z,29.07
2019-03-29T20:48:39.730Z,25.85
2019-03-29T20:51:08.549Z,27.05
2019-03-29T20:53:37.460Z,32.42
2019-03-29T20:56:06.717Z,29.27
2019-03-29T20:58:35.847Z,27.48
2019-03-29T21:01:04.720Z,33.85
2019-03-29T21:03:33.587Z,25.27
2019-03-29T21:06:02.451Z,32.03
2019-03-29T21:08:31.333Z,29.70
2019-03-29T21:11:00.234Z,26.97
2019-03-29T21:13:29.107Z,28.92
2019-03-29T21:15:58.040Z,24.75
2019-03-29T21:18:27.076Z,27.13
2019-03-29T21:20:55.974Z,29.50
2019-03-29T21:23:24.798Z,29.42
2019-03-29T21:25:53.697Z,31.93
2019-03-29T21:28:22.547Z,27.87
2019-03-29T21:30:51.402Z,26.82
2019-03-29T21:33:20.285Z,26.87
2019-03-29T21:35:49.209Z,26.95
2019-03-29T21:38:18.053Z,33.85
2019-03-29T21:40:46.956Z,28.80
2019-03-29T21:43:15.859Z,29.63
2019-03-29T21:45:44.739Z,29.42
2019-03-29T21:48:27.957Z,29.70
2019-03-29T21:50:44.190Z,30.27
2019-03-29T21:53:13.043Z,32.23
2019-03-29T21:55:41.914Z,30.15
2019-03-29T21:58:10.829Z,30.27
2019-03-29T22:00:39.669Z,27.60
2019-03-29T22:03:08.782Z,31.42
2019-03-29T22:05:37.671Z,27.98
2019-03-29T22:08:06.536Z,25.52
2019-03-29T22:10:35.428Z,30.20
2019-03-29T22:13:04.300Z,26.30
2019-03-29T22:15:33.183Z,30.90
2019-03-29T22:18:02.057Z,34.98
2019-03-29T22:20:30.956Z,32.17
2019-03-29T22:22:59.766Z,33.38
2019-03-29T22:25:28.673Z,35.15
2019-03-29T22:27:57.523Z,29.32
2019-03-29T22:30:26.395Z,33.30
2019-03-29T22:32:55.255Z,29.15
2019-03-29T22:35:24.147Z,32.08
2019-03-29T22:37:52.990Z,33.60
2019-03-29T22:40:21.874Z,31.77
2019-03-29T22:42:50.730Z,30.92
2019-03-29T22:45:19.562Z,35.33
2019-03-29T22:47:48.375Z,34.55
2019-03-29T22:50:17.422Z,30.77
2019-03-29T22:52:46.302Z,34.13
2019-03-29T22:55:15.168Z,31.57
2019-03-29T22:57:44.046Z,30.97
2019-03-29T23:00:26.143Z,36.68
2019-03-29T23:02:55.029Z,34.13
2019-03-29T23:05:23.873Z,34.25
2019-03-29T23:07:52.776Z,34.90
2019-03-29T23:10:21.641Z,33.78
2019-03-29T23:12:50.476Z,33.78
2019-03-29T23:15:19.364Z,30.00
2019-03-29T23:17:48.232Z,30.40
2019-03-29T23:20:17.120Z,29.00
2019-03-29T23:22:45.978Z,30.97
2019-03-29T23:25:14.883Z,32.67
2019-03-29T23:27:43.731Z,29.23
2019-03-29T23:30:13.822Z,34.83
2019-03-29T23:32:42.684Z,34.65
2019-03-29T23:35:11.799Z,33.92
2019-03-29T23:37:40.648Z,35.65
2019-03-29T23:40:09.649Z,31.48
2019-03-29T23:42:38.496Z,33.45
2019-03-29T23:45:08.388Z,29.70
2019-03-29T23:47:37.244Z,38.60
2019-03-29T23:50:06.990Z,26.73
2019-03-29T23:52:35.878Z,31.45
2019-03-29T23:55:05.836Z,28.42
2019-03-29T23:57:34.723Z,29.32
